sensor_id;sensor_type;location;lat;lon;timestamp;P1;P2;P0
26185;PMS7003;20067;48.764;9.176;2024-03-29T00:00:26;8.00;6.00;0.00
26185;PMS7003;20067;48.764;9.176;2024-03-29T00:02:51;5.00;5.00;0.00
26185;PMS7003;20067;48.764;9.176;2024-03-29T00:05:17;5.25;5.25;0.25
26185;PMS7003;20067;48.764;9.176;2024-03-29T00:07:43;6.00;6.00;0.00
26185;PMS7003;20067;48.764;9.176;2024-03-29T00:10:09;8.00;8.00;1.00
26185;PMS7003;20067;48.764;9.176;2024-03-29T00:12:35;6.50;4.00;0.00
26185;PMS7003;20067;48.764;9.176;2024-03-29T00:15:01;6.50;6.00;0.00
26185;PMS7003;20067;48.764;9.176;2024-03-29T00:17:27;5.50;5.50;0.00
26185;PMS7003;20067;48.764;9.176;2024-03-29T00:19:53;4.00;4.00;0.00
26185;PMS7003;20067;48.764;9.176;2024-03-29T00:22:19;6.00;6.00;0.25
26185;PMS7003;20067;48.764;9.176;2024-03-29T00:24:44;6.00;6.00;0.00
26185;PMS7003;20067;48.764;9.176;2024-03-29T00:27:10;6.00;6.00;0.75
26185;PMS7003;20067;48.764;9.176;2024-03-29T00:29:36;6.00;6.00;1.00
26185;PMS7003;20067;48.764;9.176;2024-03-29T00:32:02;8.00;8.00;0.75
26185;PMS7003;20067;48.764;9.176;2024-03-29T00:34:28;5.00;5.00;0.00
26185;PMS7003;20067;48.764;9.176;2024-03-29T00:36:53;6.00;6.00;0.00
26185;PMS7003;20067;48.764;9.176;2024-03-29T00:39:19;7.00;6.00;0.00
26185;PMS7003;20067;48.764;9.176;2024-03-29T00:41:45;8.00;8.00;0.00
26185;PMS7003;20067;48.764;9.176;2024-03-29T00:44:11;9.00;6.50;1.00
26185;PMS7003;20067;48.764;9.176;2024-03-29T00:46:36;5.00;5.00;0.00
26185;PMS7003;20067;48.764;9.176;2024-03-29T00:49:02;6.00;6.00;0.00
26185;PMS7003;20067;48.764;9.176;2024-03-29T00:51:28;5.50;5.50;0.00
26185;PMS7003;20067;48.764;9.176;2024-03-29T00:53:53;6.00;5.25;0.00
26185;PMS7003;20067;48.764;9.176;2024-03-29T00:56:19;4.25;4.25;0.00
26185;PMS7003;20067;48.764;9.176;2024-03-29T00:58:45;4.50;4.50;0.00
26185;PMS7003;20067;48.764;9.176;2024-03-29T01:01:11;6.00;6.00;0.25
26185;PMS7003;20067;48.764;9.176;2024-03-29T01:03:37;6.00;5.50;0.00
26185;PMS7003;20067;48.764;9.176;2024-03-29T01:06:03;5.50;5.00;1.00
26185;PMS7003;20067;48.764;9.176;2024-03-29T01:08:29;6.00;6.00;1.00
26185;PMS7003;20067;48.764;9.176;2024-03-29T01:10:54;6.00;6.00;0.00
26185;PMS7003;20067;48.764;9.176;2024-03-29T01:13:20;6.00;6.00;1.00
26185;PMS7003;20067;48.764;9.176;2024-03-29T01:15:46;8.00;5.50;1.50
26185;PMS7003;20067;48.764;9.176;2024-03-29T01:18:12;6.00;6.00;1.00
26185;PMS7003;20067;48.764;9.176;2024-03-29T01:20:38;4.50;4.50;0.00
26185;PMS7003;20067;48.764;9.176;2024-03-29T01:23:04;6.00;6.00;1.00
26185;PMS7003;20067;48.764;9.176;2024-03-29T01:25:29;5.00;5.00;0.75
26185;PMS7003;20067;48.764;9.176;2024-03-29T01:27:55;6.00;6.00;1.00
26185;PMS7003;20067;48.764;9.176;2024-03-29T01:30:21;6.00;6.00;0.00
26185;PMS7003;20067;48.764;9.176;2024-03-29T01:32:47;4.00;4.00;0.00
26185;PMS7003;20067;48.764;9.176;2024-03-29T01:35:13;10.50;6.50;3.00
26185;PMS7003;20067;48.764;9.176;2024-03-29T01:37:38;6.00;6.00;2.50
26185;PMS7003;20067;48.764;9.176;2024-03-29T01:40:04;6.75;6.00;1.00
26185;PMS7003;20067;48.764;9.176;2024-03-29T01:42:30;6.00;4.00;0.00
26185;PMS7003;20067;48.764;9.176;2024-03-29T01:44:56;6.75;6.75;0.00
26185;PMS7003;20067;48.764;9.176;2024-03-29T01:47:24;4.00;4.00;0.00
26185;PMS7003;20067;48.764;9.176;2024-03-29T01:49:51;5.00;5.00;0.00
26185;PMS7003;20067;48.764;9.176;2024-03-29T01:52:17;6.00;6.00;0.00
26185;PMS7003;20067;48.764;9.176;2024-03-29T01:54:46;4.00;4.00;0.00
26185;PMS7003;20067;48.764;9.176;2024-03-29T01:57:14;6.00;6.00;0.00
26185;PMS7003;20067;48.764;9.176;2024-03-29T01:59:42;5.00;5.00;0.00
26185;PMS7003;20067;48.764;9.176;2024-03-29T02:02:12;8.00;8.00;0.00
26185;PMS7003;20067;48.764;9.176;2024-03-29T02:04:39;5.00;5.00;0.00
26185;PMS7003;20067;48.764;9.176;2024-03-29T02:07:07;7.00;7.00;0.00
26185;PMS7003;20067;48.764;9.176;2024-03-29T02:09:34;6.00;4.00;0.00
26185;PMS7003;20067;48.764;9.176;2024-03-29T02:12:01;7.00;7.00;0.00
26185;PMS7003;20067;48.764;9.176;2024-03-29T02:14:27;4.00;4.00;0.00
26185;PMS7003;20067;48.764;9.176;2024-03-29T02:16:54;5.00;5.00;0.00
26185;PMS7003;20067;48.764;9.176;2024-03-29T02:19:20;6.00;6.00;0.00
26185;PMS7003;20067;48.764;9.176;2024-03-29T02:21:47;4.00;4.00;0.00
26185;PMS7003;20067;48.764;9.176;2024-03-29T02:24:15;8.00;6.00;0.00
26185;PMS7003;20067;48.764;9.176;2024-03-29T02:26:42;4.00;4.00;0.00
26185;PMS7003;20067;48.764;9.176;2024-03-29T02:29:10;4.00;4.00;0.00
26185;PMS7003;20067;48.764;9.176;2024-03-29T02:31:37;4.00;4.00;0.00
26185;PMS7003;20067;48.764;9.176;2024-03-29T02:34:04;4.00;4.00;0.00
26185;PMS7003;20067;48.764;9.176;2024-03-29T02:36:32;4.50;4.50;0.00
26185;PMS7003;20067;48.764;9.176;2024-03-29T02:38:59;6.00;6.00;0.00
26185;PMS7003;20067;48.764;9.176;2024-03-29T02:41:26;4.00;4.00;0.00
26185;PMS7003;20067;48.764;9.176;2024-03-29T02:43:55;4.00;4.00;0.00
26185;PMS7003;20067;48.764;9.176;2024-03-29T02:46:22;4.00;4.00;0.00
26185;PMS7003;20067;48.764;9.176;2024-03-29T02:48:49;4.50;4.50;1.00
26185;PMS7003;20067;48.764;9.176;2024-03-29T02:51:15;4.00;4.00;1.00
26185;PMS7003;20067;48.764;9.176;2024-03-29T02:53:42;5.50;5.50;0.00
26185;PMS7003;20067;48.764;9.176;2024-03-29T02:56:07;5.50;5.50;0.00
26185;PMS7003;20067;48.764;9.176;2024-03-29T02:58:35;6.50;4.00;0.00
26185;PMS7003;20067;48.764;9.176;2024-03-29T03:01:10;5.50;5.50;0.00
26185;PMS7003;20067;48.764;9.176;2024-03-29T03:03:37;4.00;4.00;0.00
26185;PMS7003;20067;48.764;9.176;2024-03-29T03:06:03;6.00;4.00;0.00
26185;PMS7003;20067;48.764;9.176;2024-03-29T03:08:30;4.00;4.00;0.00
26185;PMS7003;20067;48.764;9.176;2024-03-29T03:11:14;6.25;6.25;0.25
26185;PMS7003;20067;48.764;9.176;2024-03-29T03:13:41;5.50;5.50;0.00
26185;PMS7003;20067;48.764;9.176;2024-03-29T03:16:07;4.50;4.50;0.00
26185;PMS7003;20067;48.764;9.176;2024-03-29T03:18:34;7.50;6.00;0.00
26185;PMS7003;20067;48.764;9.176;2024-03-29T03:21:00;6.00;6.00;0.00
26185;PMS7003;20067;48.764;9.176;2024-03-29T03:23:27;5.75;5.75;0.00
26185;PMS7003;20067;48.764;9.176;2024-03-29T03:25:54;5.50;4.00;0.25
26185;PMS7003;20067;48.764;9.176;2024-03-29T03:28:20;4.00;4.00;0.00
26185;PMS7003;20067;48.764;9.176;2024-03-29T03:30:48;4.00;4.00;0.00
26185;PMS7003;20067;48.764;9.176;2024-03-29T03:33:14;8.00;8.00;1.00
26185;PMS7003;20067;48.764;9.176;2024-03-29T03:35:41;5.00;5.00;0.00
26185;PMS7003;20067;48.764;9.176;2024-03-29T03:38:08;5.50;5.50;0.00
26185;PMS7003;20067;48.764;9.176;2024-03-29T03:40:35;5.75;5.75;0.00
26185;PMS7003;20067;48.764;9.176;2024-03-29T03:43:02;6.00;6.00;0.00
26185;PMS7003;20067;48.764;9.176;2024-03-29T03:45:35;4.75;4.75;0.00
26185;PMS7003;20067;48.764;9.176;2024-03-29T03:48:09;4.75;4.75;0.00
26185;PMS7003;20067;48.764;9.176;2024-03-29T03:50:39;7.50;6.00;0.00
26185;PMS7003;20067;48.764;9.176;2024-03-29T03:53:07;5.00;5.00;0.00
26185;PMS7003;20067;48.764;9.176;2024-03-29T03:55:39;6.00;6.00;0.00
26185;PMS7003;20067;48.764;9.176;2024-03-29T03:58:06;5.50;5.50;0.00
26185;PMS7003;20067;48.764;9.176;2024-03-29T04:00:32;4.00;4.00;0.00
26185;PMS7003;20067;48.764;9.176;2024-03-29T04:02:59;4.00;4.00;0.00
26185;PMS7003;20067;48.764;9.176;2024-03-29T04:05:25;4.00;4.00;0.50
26185;PMS7003;20067;48.764;9.176;2024-03-29T04:07:52;4.00;4.00;0.25
26185;PMS7003;20067;48.764;9.176;2024-03-29T04:10:18;8.00;7.50;1.00
26185;PMS7003;20067;48.764;9.176;2024-03-29T04:12:44;6.00;6.00;1.00
26185;PMS7003;20067;48.764;9.176;2024-03-29T04:15:10;6.50;6.00;1.00
26185;PMS7003;20067;48.764;9.176;2024-03-29T04:17:36;4.00;4.00;0.50
26185;PMS7003;20067;48.764;9.176;2024-03-29T04:20:02;4.00;4.00;0.00
26185;PMS7003;20067;48.764;9.176;2024-03-29T04:22:30;6.00;6.00;1.00
26185;PMS7003;20067;48.764;9.176;2024-03-29T04:24:56;6.00;6.00;0.25
26185;PMS7003;20067;48.764;9.176;2024-03-29T04:27:23;4.00;4.00;0.50
26185;PMS7003;20067;48.764;9.176;2024-03-29T04:29:54;5.00;5.00;0.00
26185;PMS7003;20067;48.764;9.176;2024-03-29T04:32:21;6.00;6.00;1.50
26185;PMS7003;20067;48.764;9.176;2024-03-29T04:34:50;4.00;4.00;0.00
26185;PMS7003;20067;48.764;9.176;2024-03-29T04:37:17;6.00;6.00;1.50
26185;PMS7003;20067;48.764;9.176;2024-03-29T04:39:43;4.00;4.00;0.00
26185;PMS7003;20067;48.764;9.176;2024-03-29T04:42:12;5.50;5.50;2.50
26185;PMS7003;20067;48.764;9.176;2024-03-29T04:44:39;8.50;6.00;3.00
26185;PMS7003;20067;48.764;9.176;2024-03-29T04:47:07;6.00;6.00;0.00
26185;PMS7003;20067;48.764;9.176;2024-03-29T04:49:35;4.50;4.50;1.00
26185;PMS7003;20067;48.764;9.176;2024-03-29T04:52:03;4.00;4.00;0.00
26185;PMS7003;20067;48.764;9.176;2024-03-29T04:54:30;4.00;4.00;0.00
26185;PMS7003;20067;48.764;9.176;2024-03-29T04:57:00;4.00;4.00;1.00
26185;PMS7003;20067;48.764;9.176;2024-03-29T04:59:31;4.00;4.00;1.00
26185;PMS7003;20067;48.764;9.176;2024-03-29T05:01:58;4.00;4.00;0.00
26185;PMS7003;20067;48.764;9.176;2024-03-29T05:04:25;4.00;4.00;0.00
26185;PMS7003;20067;48.764;9.176;2024-03-29T05:06:56;4.00;4.00;0.50
26185;PMS7003;20067;48.764;9.176;2024-03-29T05:11:52;3.50;3.50;0.00
26185;PMS7003;20067;48.764;9.176;2024-03-29T05:14:20;4.50;4.50;1.50
26185;PMS7003;20067;48.764;9.176;2024-03-29T05:16:47;6.00;6.00;2.00
26185;PMS7003;20067;48.764;9.176;2024-03-29T05:19:14;6.00;4.00;1.00
26185;PMS7003;20067;48.764;9.176;2024-03-29T05:21:42;4.00;4.00;1.00
26185;PMS7003;20067;48.764;9.176;2024-03-29T05:24:08;6.25;4.50;1.00
26185;PMS7003;20067;48.764;9.176;2024-03-29T05:26:35;4.00;4.00;1.00
26185;PMS7003;20067;48.764;9.176;2024-03-29T05:29:02;4.00;4.00;1.00
26185;PMS7003;20067;48.764;9.176;2024-03-29T05:31:30;4.00;4.00;1.00
26185;PMS7003;20067;48.764;9.176;2024-03-29T05:33:57;4.50;4.00;1.00
26185;PMS7003;20067;48.764;9.176;2024-03-29T05:36:25;6.00;6.00;3.00
26185;PMS7003;20067;48.764;9.176;2024-03-29T05:38:52;4.00;4.00;1.00
26185;PMS7003;20067;48.764;9.176;2024-03-29T05:41:18;4.00;4.00;1.00
26185;PMS7003;20067;48.764;9.176;2024-03-29T05:43:45;4.00;4.00;0.50
26185;PMS7003;20067;48.764;9.176;2024-03-29T05:46:12;4.00;4.00;1.00
26185;PMS7003;20067;48.764;9.176;2024-03-29T05:48:42;4.00;4.00;1.00
26185;PMS7003;20067;48.764;9.176;2024-03-29T05:51:09;5.25;4.00;1.00
26185;PMS7003;20067;48.764;9.176;2024-03-29T05:53:35;4.00;4.00;1.00
26185;PMS7003;20067;48.764;9.176;2024-03-29T05:56:02;5.00;5.00;1.00
26185;PMS7003;20067;48.764;9.176;2024-03-29T05:58:29;5.00;5.00;1.00
26185;PMS7003;20067;48.764;9.176;2024-03-29T06:00:55;4.00;4.00;1.00
26185;PMS7003;20067;48.764;9.176;2024-03-29T06:03:22;5.50;5.50;0.75
26185;PMS7003;20067;48.764;9.176;2024-03-29T06:05:49;4.00;4.00;1.00
26185;PMS7003;20067;48.764;9.176;2024-03-29T06:08:16;4.00;4.00;0.00
26185;PMS7003;20067;48.764;9.176;2024-03-29T06:10:42;4.00;4.00;0.00
26185;PMS7003;20067;48.764;9.176;2024-03-29T06:13:09;5.50;5.50;0.00
26185;PMS7003;20067;48.764;9.176;2024-03-29T06:15:52;4.00;4.00;1.00
26185;PMS7003;20067;48.764;9.176;2024-03-29T06:18:37;4.50;4.50;1.00
26185;PMS7003;20067;48.764;9.176;2024-03-29T06:21:03;4.00;4.00;1.00
26185;PMS7003;20067;48.764;9.176;2024-03-29T06:23:30;4.50;4.50;1.50
26185;PMS7003;20067;48.764;9.176;2024-03-29T06:25:57;4.00;4.00;1.00
26185;PMS7003;20067;48.764;9.176;2024-03-29T06:28:23;4.00;4.00;1.00
26185;PMS7003;20067;48.764;9.176;2024-03-29T06:30:50;6.00;6.00;3.00
26185;PMS7003;20067;48.764;9.176;2024-03-29T06:33:17;6.00;6.00;2.50
26185;PMS7003;20067;48.764;9.176;2024-03-29T06:35:52;4.00;4.00;1.00
26185;PMS7003;20067;48.764;9.176;2024-03-29T06:38:19;5.00;5.00;1.00
26185;PMS7003;20067;48.764;9.176;2024-03-29T06:40:46;4.50;4.50;1.00
26185;PMS7003;20067;48.764;9.176;2024-03-29T06:43:13;4.00;4.00;1.00
26185;PMS7003;20067;48.764;9.176;2024-03-29T06:45:40;4.00;4.00;1.00
26185;PMS7003;20067;48.764;9.176;2024-03-29T06:48:07;4.00;4.00;1.00
26185;PMS7003;20067;48.764;9.176;2024-03-29T06:50:35;5.50;5.50;1.00
26185;PMS7003;20067;48.764;9.176;2024-03-29T06:53:01;4.00;4.00;1.00
26185;PMS7003;20067;48.764;9.176;2024-03-29T06:55:29;4.50;4.50;1.00
26185;PMS7003;20067;48.764;9.176;2024-03-29T06:57:56;4.00;4.00;1.00
26185;PMS7003;20067;48.764;9.176;2024-03-29T07:00:23;6.75;6.00;2.50
26185;PMS7003;20067;48.764;9.176;2024-03-29T07:02:50;4.00;4.00;0.00
26185;PMS7003;20067;48.764;9.176;2024-03-29T07:05:16;5.75;5.75;2.75
26185;PMS7003;20067;48.764;9.176;2024-03-29T07:07:43;6.00;6.00;1.50
26185;PMS7003;20067;48.764;9.176;2024-03-29T07:10:12;5.25;5.25;1.50
26185;PMS7003;20067;48.764;9.176;2024-03-29T07:12:40;5.25;5.25;1.00
26185;PMS7003;20067;48.764;9.176;2024-03-29T07:15:06;4.00;4.00;1.00
26185;PMS7003;20067;48.764;9.176;2024-03-29T07:17:36;4.00;4.00;0.50
26185;PMS7003;20067;48.764;9.176;2024-03-29T07:20:03;4.00;4.00;1.00
26185;PMS7003;20067;48.764;9.176;2024-03-29T07:22:30;6.75;4.75;1.00
26185;PMS7003;20067;48.764;9.176;2024-03-29T07:24:57;5.50;5.50;1.00
26185;PMS7003;20067;48.764;9.176;2024-03-29T07:27:23;5.00;5.00;0.75
26185;PMS7003;20067;48.764;9.176;2024-03-29T07:29:50;5.00;5.00;1.50
26185;PMS7003;20067;48.764;9.176;2024-03-29T07:32:17;8.25;8.25;4.00
26185;PMS7003;20067;48.764;9.176;2024-03-29T07:34:46;6.00;6.00;2.50
26185;PMS7003;20067;48.764;9.176;2024-03-29T07:37:12;6.50;6.50;3.00
26185;PMS7003;20067;48.764;9.176;2024-03-29T07:39:41;7.00;7.00;3.75
26185;PMS7003;20067;48.764;9.176;2024-03-29T07:42:08;6.25;4.25;1.00
26185;PMS7003;20067;48.764;9.176;2024-03-29T07:44:34;6.75;6.75;3.00
26185;PMS7003;20067;48.764;9.176;2024-03-29T07:47:00;5.50;5.50;0.00
26185;PMS7003;20067;48.764;9.176;2024-03-29T07:49:27;6.00;6.00;3.00
26185;PMS7003;20067;48.764;9.176;2024-03-29T07:51:54;10.00;9.00;3.00
26185;PMS7003;20067;48.764;9.176;2024-03-29T07:54:20;9.25;7.00;1.00
26185;PMS7003;20067;48.764;9.176;2024-03-29T07:56:47;6.25;6.25;1.00
26185;PMS7003;20067;48.764;9.176;2024-03-29T07:59:14;5.50;5.50;1.00
26185;PMS7003;20067;48.764;9.176;2024-03-29T08:01:44;6.75;5.50;1.00
26185;PMS7003;20067;48.764;9.176;2024-03-29T08:04:11;6.00;5.50;2.50
26185;PMS7003;20067;48.764;9.176;2024-03-29T08:06:37;6.00;6.00;3.00
26185;PMS7003;20067;48.764;9.176;2024-03-29T08:09:04;4.00;4.00;1.00
26185;PMS7003;20067;48.764;9.176;2024-03-29T08:11:31;7.00;6.50;3.00
26185;PMS7003;20067;48.764;9.176;2024-03-29T08:13:58;8.00;7.00;3.00
26185;PMS7003;20067;48.764;9.176;2024-03-29T08:16:24;6.00;6.00;1.50
26185;PMS7003;20067;48.764;9.176;2024-03-29T08:18:51;6.00;6.00;1.50
26185;PMS7003;20067;48.764;9.176;2024-03-29T08:21:18;7.00;7.00;3.50
26185;PMS7003;20067;48.764;9.176;2024-03-29T08:23:44;6.00;6.00;3.00
26185;PMS7003;20067;48.764;9.176;2024-03-29T08:26:12;7.00;7.00;3.25
26185;PMS7003;20067;48.764;9.176;2024-03-29T08:28:39;6.50;6.50;1.00
26185;PMS7003;20067;48.764;9.176;2024-03-29T08:31:07;6.00;6.00;1.00
26185;PMS7003;20067;48.764;9.176;2024-03-29T08:33:34;7.00;7.00;1.00
26185;PMS7003;20067;48.764;9.176;2024-03-29T08:36:06;6.75;6.75;2.75
26185;PMS7003;20067;48.764;9.176;2024-03-29T08:38:34;6.00;6.00;2.50
26185;PMS7003;20067;48.764;9.176;2024-03-29T08:41:01;6.75;6.75;3.00
26185;PMS7003;20067;48.764;9.176;2024-03-29T08:43:28;6.00;6.00;3.00
26185;PMS7003;20067;48.764;9.176;2024-03-29T08:45:54;5.50;5.50;1.50
26185;PMS7003;20067;48.764;9.176;2024-03-29T08:48:22;9.00;7.00;3.00
26185;PMS7003;20067;48.764;9.176;2024-03-29T08:50:50;7.00;7.00;3.00
26185;PMS7003;20067;48.764;9.176;2024-03-29T08:53:16;9.50;7.50;4.00
26185;PMS7003;20067;48.764;9.176;2024-03-29T08:55:45;7.00;6.00;3.00
26185;PMS7003;20067;48.764;9.176;2024-03-29T08:58:13;12.50;12.50;8.00
26185;PMS7003;20067;48.764;9.176;2024-03-29T09:00:40;12.25;12.00;7.50
26185;PMS7003;20067;48.764;9.176;2024-03-29T09:03:07;8.00;7.50;4.00
26185;PMS7003;20067;48.764;9.176;2024-03-29T09:05:33;7.00;7.00;3.75
26185;PMS7003;20067;48.764;9.176;2024-03-29T09:08:00;6.75;6.75;3.00
26185;PMS7003;20067;48.764;9.176;2024-03-29T09:10:27;8.50;8.50;4.00
26185;PMS7003;20067;48.764;9.176;2024-03-29T09:12:53;6.00;6.00;3.00
26185;PMS7003;20067;48.764;9.176;2024-03-29T09:15:20;8.50;8.50;4.00
26185;PMS7003;20067;48.764;9.176;2024-03-29T09:17:47;10.00;9.75;4.00
26185;PMS7003;20067;48.764;9.176;2024-03-29T09:20:14;8.00;6.00;1.00
26185;PMS7003;20067;48.764;9.176;2024-03-29T09:22:40;9.50;9.50;1.00
26185;PMS7003;20067;48.764;9.176;2024-03-29T09:25:07;9.75;9.75;3.00
26185;PMS7003;20067;48.764;9.176;2024-03-29T09:27:38;9.50;9.00;3.75
26185;PMS7003;20067;48.764;9.176;2024-03-29T09:30:07;8.00;8.00;1.00
26185;PMS7003;20067;48.764;9.176;2024-03-29T09:32:37;7.00;7.00;1.00
26185;PMS7003;20067;48.764;9.176;2024-03-29T09:35:04;6.50;6.50;1.00
26185;PMS7003;20067;48.764;9.176;2024-03-29T09:37:31;6.00;6.00;1.00
26185;PMS7003;20067;48.764;9.176;2024-03-29T09:40:01;6.00;6.00;0.25
26185;PMS7003;20067;48.764;9.176;2024-03-29T09:42:31;6.00;6.00;0.00
26185;PMS7003;20067;48.764;9.176;2024-03-29T09:44:59;10.00;7.00;4.00
26185;PMS7003;20067;48.764;9.176;2024-03-29T09:47:28;7.00;6.50;3.00
26185;PMS7003;20067;48.764;9.176;2024-03-29T09:49:57;8.00;8.00;3.75
26185;PMS7003;20067;48.764;9.176;2024-03-29T09:52:34;10.00;8.00;3.00
26185;PMS7003;20067;48.764;9.176;2024-03-29T09:55:01;6.25;6.25;3.00
26185;PMS7003;20067;48.764;9.176;2024-03-29T09:57:28;6.00;6.00;1.00
26185;PMS7003;20067;48.764;9.176;2024-03-29T09:59:56;5.00;5.00;1.25
26185;PMS7003;20067;48.764;9.176;2024-03-29T10:02:25;5.00;5.00;2.00
26185;PMS7003;20067;48.764;9.176;2024-03-29T10:04:56;6.50;6.50;2.00
26185;PMS7003;20067;48.764;9.176;2024-03-29T10:07:27;7.00;5.00;2.00
26185;PMS7003;20067;48.764;9.176;2024-03-29T10:09:56;7.00;7.00;3.50
26185;PMS7003;20067;48.764;9.176;2024-03-29T10:12:24;5.50;5.50;1.50
26185;PMS7003;20067;48.764;9.176;2024-03-29T10:14:50;12.50;8.00;3.00
26185;PMS7003;20067;48.764;9.176;2024-03-29T10:17:20;7.25;7.00;2.50
26185;PMS7003;20067;48.764;9.176;2024-03-29T10:19:46;8.00;5.00;1.50
26185;PMS7003;20067;48.764;9.176;2024-03-29T10:22:14;8.50;8.50;4.25
26185;PMS7003;20067;48.764;9.176;2024-03-29T10:24:41;7.50;7.50;3.00
26185;PMS7003;20067;48.764;9.176;2024-03-29T10:27:08;8.00;8.00;3.50
26185;PMS7003;20067;48.764;9.176;2024-03-29T10:29:35;9.50;8.00;2.00
26185;PMS7003;20067;48.764;9.176;2024-03-29T10:32:02;8.25;8.25;4.00
26185;PMS7003;20067;48.764;9.176;2024-03-29T10:34:29;10.00;8.00;2.00
26185;PMS7003;20067;48.764;9.176;2024-03-29T10:36:59;8.00;7.25;2.00
26185;PMS7003;20067;48.764;9.176;2024-03-29T10:39:29;8.00;8.00;3.00
26185;PMS7003;20067;48.764;9.176;2024-03-29T10:41:58;8.25;8.00;3.00
26185;PMS7003;20067;48.764;9.176;2024-03-29T10:44:26;7.25;7.25;2.00
26185;PMS7003;20067;48.764;9.176;2024-03-29T10:46:55;8.00;8.00;3.00
26185;PMS7003;20067;48.764;9.176;2024-03-29T10:49:23;8.00;8.00;3.50
26185;PMS7003;20067;48.764;9.176;2024-03-29T10:51:51;8.00;8.00;4.00
26185;PMS7003;20067;48.764;9.176;2024-03-29T10:54:22;11.00;11.00;4.00
26185;PMS7003;20067;48.764;9.176;2024-03-29T10:56:51;11.75;9.50;3.00
26185;PMS7003;20067;48.764;9.176;2024-03-29T10:59:27;8.25;8.25;4.00
26185;PMS7003;20067;48.764;9.176;2024-03-29T11:02:03;10.25;10.25;4.00
26185;PMS7003;20067;48.764;9.176;2024-03-29T11:04:46;8.75;8.00;1.00
26185;PMS7003;20067;48.764;9.176;2024-03-29T11:07:16;13.25;13.25;6.50
26185;PMS7003;20067;48.764;9.176;2024-03-29T11:09:47;10.00;7.50;1.50
26185;PMS7003;20067;48.764;9.176;2024-03-29T11:12:18;11.75;9.50;2.50
26185;PMS7003;20067;48.764;9.176;2024-03-29T11:14:51;8.00;8.00;2.00
26185;PMS7003;20067;48.764;9.176;2024-03-29T11:17:29;10.75;8.75;2.00
26185;PMS7003;20067;48.764;9.176;2024-03-29T11:19:58;10.75;10.50;2.00
26185;PMS7003;20067;48.764;9.176;2024-03-29T11:22:26;9.75;9.50;2.00
26185;PMS7003;20067;48.764;9.176;2024-03-29T11:24:53;10.00;7.75;2.00
26185;PMS7003;20067;48.764;9.176;2024-03-29T11:27:24;10.25;10.25;4.00
26185;PMS7003;20067;48.764;9.176;2024-03-29T11:29:51;7.75;7.75;2.00
26185;PMS7003;20067;48.764;9.176;2024-03-29T11:32:34;11.00;10.75;3.00
26185;PMS7003;20067;48.764;9.176;2024-03-29T11:35:03;7.25;7.25;1.00
26185;PMS7003;20067;48.764;9.176;2024-03-29T11:37:31;7.50;7.50;2.00
26185;PMS7003;20067;48.764;9.176;2024-03-29T11:39:58;8.75;8.00;2.00
26185;PMS7003;20067;48.764;9.176;2024-03-29T11:45:25;11.25;9.00;2.00
26185;PMS7003;20067;48.764;9.176;2024-03-29T11:47:55;8.00;7.25;2.00
26185;PMS7003;20067;48.764;9.176;2024-03-29T11:50:28;7.00;7.00;2.00
26185;PMS7003;20067;48.764;9.176;2024-03-29T11:52:55;8.25;8.25;4.00
26185;PMS7003;20067;48.764;9.176;2024-03-29T11:55:21;10.00;10.00;4.00
26185;PMS7003;20067;48.764;9.176;2024-03-29T11:57:48;7.75;7.00;1.25
26185;PMS7003;20067;48.764;9.176;2024-03-29T12:00:15;9.25;9.00;2.50
26185;PMS7003;20067;48.764;9.176;2024-03-29T12:02:42;11.50;8.00;2.00
26185;PMS7003;20067;48.764;9.176;2024-03-29T12:05:08;8.75;8.00;2.00
26185;PMS7003;20067;48.764;9.176;2024-03-29T12:07:35;8.00;8.00;3.50
26185;PMS7003;20067;48.764;9.176;2024-03-29T12:10:02;8.75;8.75;2.00
26185;PMS7003;20067;48.764;9.176;2024-03-29T12:12:29;13.25;13.25;5.00
26185;PMS7003;20067;48.764;9.176;2024-03-29T12:15:00;8.25;8.25;3.00
26185;PMS7003;20067;48.764;9.176;2024-03-29T12:17:27;11.00;8.50;3.50
26185;PMS7003;20067;48.764;9.176;2024-03-29T12:19:57;8.50;8.50;2.50
26185;PMS7003;20067;48.764;9.176;2024-03-29T12:22:29;8.00;8.00;2.00
26185;PMS7003;20067;48.764;9.176;2024-03-29T12:24:57;8.25;8.25;4.00
26185;PMS7003;20067;48.764;9.176;2024-03-29T12:27:24;11.00;8.75;4.00
26185;PMS7003;20067;48.764;9.176;2024-03-29T12:29:51;7.25;6.25;3.50
26185;PMS7003;20067;48.764;9.176;2024-03-29T12:32:21;8.75;8.75;4.00
26185;PMS7003;20067;48.764;9.176;2024-03-29T12:34:48;13.00;12.00;5.75
26185;PMS7003;20067;48.764;9.176;2024-03-29T12:37:15;9.75;9.00;5.00
26185;PMS7003;20067;48.764;9.176;2024-03-29T12:39:42;9.00;8.00;4.00
26185;PMS7003;20067;48.764;9.176;2024-03-29T12:42:10;6.00;6.00;2.50
26185;PMS7003;20067;48.764;9.176;2024-03-29T12:44:37;6.00;6.00;3.00
26185;PMS7003;20067;48.764;9.176;2024-03-29T12:47:04;8.25;8.25;4.50
26185;PMS7003;20067;48.764;9.176;2024-03-29T12:49:31;8.50;7.75;4.50
26185;PMS7003;20067;48.764;9.176;2024-03-29T12:51:57;8.75;8.75;4.75
26185;PMS7003;20067;48.764;9.176;2024-03-29T12:54:25;9.75;8.50;5.00
26185;PMS7003;20067;48.764;9.176;2024-03-29T12:56:52;7.75;7.75;3.00
26185;PMS7003;20067;48.764;9.176;2024-03-29T12:59:19;9.00;8.25;3.00
26185;PMS7003;20067;48.764;9.176;2024-03-29T13:01:47;6.25;5.75;2.00
26185;PMS7003;20067;48.764;9.176;2024-03-29T13:04:13;9.50;9.50;3.25
26185;PMS7003;20067;48.764;9.176;2024-03-29T13:06:40;5.75;5.75;1.25
26185;PMS7003;20067;48.764;9.176;2024-03-29T13:09:07;6.00;6.00;2.00
26185;PMS7003;20067;48.764;9.176;2024-03-29T13:11:34;7.00;7.00;2.00
26185;PMS7003;20067;48.764;9.176;2024-03-29T13:14:01;6.75;6.50;2.50
26185;PMS7003;20067;48.764;9.176;2024-03-29T13:16:27;5.75;5.00;1.00
26185;PMS7003;20067;48.764;9.176;2024-03-29T13:18:54;6.25;5.75;2.25
26185;PMS7003;20067;48.764;9.176;2024-03-29T13:21:22;5.75;5.75;1.25
26185;PMS7003;20067;48.764;9.176;2024-03-29T13:23:48;6.75;6.75;2.00
26185;PMS7003;20067;48.764;9.176;2024-03-29T13:26:15;6.00;6.00;1.00
26185;PMS7003;20067;48.764;9.176;2024-03-29T13:28:42;5.25;5.25;1.00
26185;PMS7003;20067;48.764;9.176;2024-03-29T13:31:08;4.75;4.25;1.25
26185;PMS7003;20067;48.764;9.176;2024-03-29T13:33:35;4.00;4.00;1.00
26185;PMS7003;20067;48.764;9.176;2024-03-29T13:36:03;7.00;6.50;2.00
26185;PMS7003;20067;48.764;9.176;2024-03-29T13:38:30;7.00;7.00;0.75
26185;PMS7003;20067;48.764;9.176;2024-03-29T13:40:56;7.00;6.50;0.00
26185;PMS7003;20067;48.764;9.176;2024-03-29T13:43:23;6.00;6.00;0.00
26185;PMS7003;20067;48.764;9.176;2024-03-29T13:45:50;6.00;6.00;0.25
26185;PMS7003;20067;48.764;9.176;2024-03-29T13:48:17;8.00;8.00;3.00
26185;PMS7003;20067;48.764;9.176;2024-03-29T13:50:44;6.50;5.75;1.00
26185;PMS7003;20067;48.764;9.176;2024-03-29T13:53:10;6.00;6.00;0.00
26185;PMS7003;20067;48.764;9.176;2024-03-29T13:55:38;7.00;6.25;1.00
26185;PMS7003;20067;48.764;9.176;2024-03-29T13:58:05;6.00;6.00;1.00
26185;PMS7003;20067;48.764;9.176;2024-03-29T14:00:32;7.00;7.00;1.00
26185;PMS7003;20067;48.764;9.176;2024-03-29T14:02:58;4.00;4.00;1.00
26185;PMS7003;20067;48.764;9.176;2024-03-29T14:05:25;7.75;6.75;1.00
26185;PMS7003;20067;48.764;9.176;2024-03-29T14:07:52;7.50;7.25;1.00
26185;PMS7003;20067;48.764;9.176;2024-03-29T14:10:18;5.50;5.50;2.50
26185;PMS7003;20067;48.764;9.176;2024-03-29T14:12:45;4.00;4.00;1.00
26185;PMS7003;20067;48.764;9.176;2024-03-29T14:15:12;4.00;4.00;1.00
26185;PMS7003;20067;48.764;9.176;2024-03-29T14:17:39;6.00;6.00;1.00
26185;PMS7003;20067;48.764;9.176;2024-03-29T14:20:05;4.00;4.00;0.00
26185;PMS7003;20067;48.764;9.176;2024-03-29T14:22:32;6.00;6.00;1.00
26185;PMS7003;20067;48.764;9.176;2024-03-29T14:25:00;6.00;6.00;0.50
26185;PMS7003;20067;48.764;9.176;2024-03-29T14:27:28;5.00;5.00;0.50